createdAt,value
2018-07-31T00:00:46.776Z,25.22
2018-07-31T00:01:47.365Z,25.23
2018-07-31T00:05:08.931Z,25.25
2018-07-31T00:06:09.570Z,25.13
2018-07-31T00:07:10.207Z,25.17
2018-07-31T00:08:10.793Z,25.17
2018-07-31T00:09:11.372Z,25.17
2018-07-31T00:10:11.962Z,25.14
2018-07-31T00:11:12.547Z,25.11
2018-07-31T00:12:13.136Z,25.16
2018-07-31T00:13:13.724Z,25.21
2018-07-31T00:14:14.312Z,25.16
2018-07-31T00:15:14.900Z,25.21
2018-07-31T00:16:15.687Z,25.13
2018-07-31T00:17:16.323Z,25.16
2018-07-31T00:18:16.962Z,25.11
2018-07-31T00:19:17.550Z,25.13
2018-07-31T00:20:18.137Z,25.13
2018-07-31T00:21:18.724Z,25.14
2018-07-31T00:22:19.363Z,25.11
2018-07-31T00:23:19.946Z,25.13
2018-07-31T00:24:20.582Z,25.13
2018-07-31T00:29:49.423Z,25.14
2018-07-31T00:30:50.001Z,25.14
2018-07-31T00:35:37.477Z,25.11
2018-07-31T00:36:38.053Z,25.10
2018-07-31T00:37:38.839Z,25.11
2018-07-31T00:38:39.515Z,24.99
2018-07-31T00:39:40.296Z,25.04
2018-07-31T00:41:56.349Z,25.06
2018-07-31T00:42:56.981Z,25.08
2018-07-31T00:45:13.606Z,25.01
2018-07-31T00:46:14.192Z,25.10
2018-07-31T00:47:14.775Z,25.07
2018-07-31T00:48:15.365Z,25.03
2018-07-31T00:49:15.952Z,25.03
2018-07-31T00:50:16.592Z,25.08
2018-07-31T00:52:18.741Z,25.08
2018-07-31T00:53:19.323Z,25.03
2018-07-31T00:54:19.899Z,24.98
2018-07-31T00:55:20.531Z,24.96
2018-07-31T00:56:34.879Z,24.99
2018-07-31T00:57:35.466Z,24.98
2018-07-31T00:58:36.052Z,24.96
2018-07-31T00:59:36.643Z,24.98
2018-07-31T01:00:37.278Z,24.99
2018-07-31T01:01:37.920Z,24.98
2018-07-31T01:02:38.505Z,25.01
2018-07-31T01:03:39.093Z,25.04
2018-07-31T01:04:39.675Z,24.99
2018-07-31T01:05:40.261Z,24.99
2018-07-31T01:06:41.004Z,25.03
2018-07-31T01:07:41.588Z,24.99
2018-07-31T01:08:42.176Z,24.96
2018-07-31T01:09:42.765Z,24.95
2018-07-31T01:10:43.391Z,25.03
2018-07-31T01:11:44.029Z,24.95
2018-07-31T01:12:44.617Z,24.98
2018-07-31T01:13:45.208Z,24.92
2018-07-31T01:14:45.791Z,24.91
2018-07-31T01:15:46.380Z,24.91
2018-07-31T01:16:46.964Z,24.96
2018-07-31T01:17:47.547Z,24.99
2018-07-31T01:18:48.180Z,24.92
2018-07-31T01:19:48.767Z,24.86
2018-07-31T01:20:49.400Z,24.96
2018-07-31T01:21:49.981Z,24.96
2018-07-31T01:22:50.571Z,24.89
2018-07-31T01:23:51.210Z,24.91
2018-07-31T01:24:51.790Z,24.92
2018-07-31T01:25:52.425Z,24.88
2018-07-31T01:26:53.060Z,24.91
2018-07-31T01:27:53.663Z,24.89
2018-07-31T01:28:54.229Z,24.91
2018-07-31T01:29:54.825Z,24.88
2018-07-31T01:30:55.457Z,24.85
2018-07-31T01:31:56.044Z,24.89
2018-07-31T01:32:56.628Z,24.91
2018-07-31T01:33:57.217Z,24.91
2018-07-31T01:34:57.843Z,24.86
2018-07-31T01:35:58.633Z,24.88
2018-07-31T01:36:59.211Z,24.85
2018-07-31T01:37:59.802Z,24.86
2018-07-31T01:39:00.383Z,24.85
2018-07-31T01:41:02.541Z,24.85
2018-07-31T01:42:03.111Z,24.81
2018-07-31T01:43:03.697Z,24.88
2018-07-31T01:44:04.293Z,24.85
2018-07-31T01:45:04.869Z,24.88
2018-07-31T01:46:05.537Z,24.85
2018-07-31T01:47:06.089Z,24.81
2018-07-31T01:48:06.674Z,24.78
2018-07-31T01:49:07.314Z,24.86
2018-07-31T01:50:07.900Z,24.81
2018-07-31T01:51:08.490Z,24.78
2018-07-31T01:52:09.073Z,24.86
2018-07-31T01:53:09.651Z,24.84
2018-07-31T01:54:10.290Z,24.80
2018-07-31T01:55:10.878Z,24.78
2018-07-31T01:56:11.459Z,24.77
2018-07-31T01:57:12.100Z,24.78
2018-07-31T01:58:12.679Z,24.85
2018-07-31T01:59:13.268Z,24.78
2018-07-31T02:00:13.851Z,24.76
2018-07-31T02:01:14.434Z,24.80
2018-07-31T02:02:15.068Z,24.73
2018-07-31T02:03:15.655Z,24.77
2018-07-31T02:04:16.245Z,24.77
2018-07-31T02:05:16.831Z,24.77
2018-07-31T02:06:17.437Z,24.81
2018-07-31T02:07:18.001Z,24.78
2018-07-31T02:08:18.590Z,24.78
2018-07-31T02:09:19.174Z,24.78
2018-07-31T02:10:19.811Z,24.78
2018-07-31T02:11:20.397Z,24.76
2018-07-31T02:12:21.033Z,24.74
2018-07-31T02:13:21.615Z,24.80
2018-07-31T02:14:22.202Z,24.78
2018-07-31T02:15:22.789Z,24.74
2018-07-31T02:16:23.378Z,24.77
2018-07-31T02:17:24.015Z,24.76
2018-07-31T02:18:24.545Z,24.77
2018-07-31T02:19:25.225Z,24.76
2018-07-31T02:20:25.806Z,24.77
2018-07-31T02:21:26.392Z,24.73
2018-07-31T02:22:26.980Z,24.76
2018-07-31T02:23:27.563Z,24.77
2018-07-31T02:24:28.150Z,24.76
2018-07-31T02:25:28.737Z,24.73
2018-07-31T02:26:29.324Z,24.70
2018-07-31T02:27:29.911Z,24.74
2018-07-31T02:28:30.509Z,24.73
2018-07-31T02:29:31.135Z,24.77
2018-07-31T02:30:31.775Z,24.76
2018-07-31T02:31:32.354Z,24.74
2018-07-31T02:32:32.944Z,24.73
2018-07-31T02:33:33.574Z,24.70
2018-07-31T02:34:34.207Z,24.66
2018-07-31T02:35:34.787Z,24.65
2018-07-31T02:36:35.371Z,24.70
2018-07-31T02:37:35.959Z,24.69
2018-07-31T02:38:36.598Z,24.74
2018-07-31T02:39:37.226Z,24.68
2018-07-31T02:40:37.816Z,24.65
2018-07-31T02:41:38.399Z,24.68
2018-07-31T02:42:38.987Z,24.63
2018-07-31T02:43:39.566Z,24.70
2018-07-31T02:44:40.149Z,24.69
2018-07-31T02:45:40.732Z,24.65
2018-07-31T02:46:41.314Z,24.70
2018-07-31T02:47:42.096Z,24.73
2018-07-31T02:48:42.676Z,24.63
2018-07-31T02:49:43.262Z,24.69
2018-07-31T02:50:43.845Z,24.66
2018-07-31T02:51:44.482Z,24.73
2018-07-31T02:52:45.073Z,24.61
2018-07-31T02:53:45.648Z,24.55
2018-07-31T02:54:46.239Z,24.63
2018-07-31T02:55:46.878Z,24.55
2018-07-31T02:56:47.466Z,24.58
2018-07-31T02:58:49.631Z,24.57
2018-07-31T02:59:50.220Z,24.66
2018-07-31T03:00:50.807Z,24.55
2018-07-31T03:01:51.382Z,24.61
2018-07-31T03:02:51.967Z,24.63
2018-07-31T03:03:52.558Z,24.58
2018-07-31T03:04:53.142Z,24.63
2018-07-31T03:05:53.731Z,24.63
2018-07-31T03:06:54.316Z,24.61
2018-07-31T03:07:54.902Z,24.58
2018-07-31T03:08:55.539Z,24.57
2018-07-31T03:09:56.118Z,24.54
2018-07-31T03:10:56.707Z,24.57
2018-07-31T03:11:57.340Z,24.60
2018-07-31T03:12:57.967Z,24.60
2018-07-31T03:13:58.551Z,24.58
2018-07-31T03:14:59.139Z,24.57
2018-07-31T03:15:59.727Z,24.58
2018-07-31T03:17:00.312Z,24.58
2018-07-31T03:18:00.951Z,24.60
2018-07-31T03:19:01.537Z,24.61
2018-07-31T03:20:02.126Z,24.54
2018-07-31T03:21:02.723Z,24.60
2018-07-31T03:22:03.297Z,24.50
2018-07-31T03:24:05.458Z,24.57
2018-07-31T03:25:06.049Z,24.57
2018-07-31T03:26:06.636Z,24.61
2018-07-31T03:27:07.222Z,24.55
2018-07-31T03:28:07.826Z,24.57
2018-07-31T03:29:08.439Z,24.61
2018-07-31T03:30:09.075Z,24.43
2018-07-31T03:31:09.715Z,24.57
2018-07-31T03:32:10.305Z,24.54
2018-07-31T03:33:10.887Z,24.63
2018-07-31T03:34:11.481Z,24.48
2018-07-31T03:38:56.253Z,24.65
2018-07-31T03:41:12.254Z,24.47
2018-07-31T03:42:12.878Z,24.47
2018-07-31T03:43:13.461Z,24.54
2018-07-31T03:44:14.040Z,24.57
2018-07-31T03:45:14.620Z,24.50
2018-07-31T03:46:15.197Z,24.42
2018-07-31T03:47:15.823Z,24.50
2018-07-31T03:48:16.450Z,24.48
2018-07-31T03:49:17.025Z,24.55
2018-07-31T03:50:17.660Z,24.61
2018-07-31T03:51:18.238Z,24.54
2018-07-31T03:52:18.816Z,24.55
2018-07-31T03:53:19.395Z,24.48
2018-07-31T03:54:19.970Z,24.50
2018-07-31T03:55:20.551Z,24.45
2018-07-31T03:56:21.164Z,24.51
2018-07-31T03:57:21.713Z,24.50
2018-07-31T03:58:22.288Z,24.54
2018-07-31T03:59:22.874Z,24.51
2018-07-31T04:00:23.451Z,24.54
2018-07-31T04:01:24.033Z,24.54
2018-07-31T04:02:24.656Z,24.50
2018-07-31T04:03:25.234Z,24.57
2018-07-31T04:04:25.868Z,24.48
2018-07-31T04:05:26.533Z,24.48
2018-07-31T04:06:27.066Z,24.48
2018-07-31T04:07:27.650Z,24.48
2018-07-31T04:08:28.229Z,24.53
2018-07-31T04:09:28.853Z,24.50
2018-07-31T04:10:29.435Z,24.48
2018-07-31T04:11:30.018Z,24.53
2018-07-31T04:12:30.595Z,24.50
2018-07-31T04:13:31.180Z,24.45
2018-07-31T04:14:31.764Z,24.48
2018-07-31T04:15:32.345Z,24.51
2018-07-31T04:16:32.928Z,24.54
2018-07-31T04:17:33.506Z,24.51
2018-07-31T04:18:34.135Z,24.51
2018-07-31T04:19:34.716Z,24.51
2018-07-31T04:20:35.497Z,24.50
2018-07-31T04:21:36.132Z,24.54
2018-07-31T04:22:36.761Z,24.50
2018-07-31T04:23:37.344Z,24.51
2018-07-31T04:24:37.929Z,24.45
2018-07-31T04:25:38.501Z,24.51
2018-07-31T04:26:39.127Z,24.53
2018-07-31T04:27:39.758Z,24.50
2018-07-31T04:28:40.338Z,24.51
2018-07-31T04:29:40.919Z,24.48
2018-07-31T04:30:41.497Z,24.48
2018-07-31T04:31:42.078Z,24.53
2018-07-31T04:32:42.660Z,24.43
2018-07-31T04:33:43.285Z,24.51
2018-07-31T04:34:43.865Z,24.42
2018-07-31T04:35:44.541Z,24.51
2018-07-31T04:36:45.069Z,24.39
2018-07-31T04:37:45.705Z,24.42
2018-07-31T04:38:46.285Z,24.47
2018-07-31T04:39:46.910Z,24.43
2018-07-31T04:40:47.493Z,24.39
2018-07-31T04:41:48.125Z,24.45
2018-07-31T04:42:48.705Z,24.43
2018-07-31T04:43:49.287Z,24.43
2018-07-31T04:44:49.867Z,24.42
2018-07-31T04:45:50.449Z,24.39
2018-07-31T04:46:51.028Z,24.39
2018-07-31T04:47:51.605Z,24.47
2018-07-31T04:48:52.189Z,24.43
2018-07-31T04:49:52.823Z,24.40
2018-07-31T04:50:53.396Z,24.50
2018-07-31T04:51:53.988Z,24.43
2018-07-31T04:52:54.604Z,24.39
2018-07-31T04:53:55.190Z,24.42
2018-07-31T04:54:55.771Z,24.43
2018-07-31T04:55:56.355Z,24.45
2018-07-31T04:56:56.980Z,24.40
2018-07-31T04:57:57.608Z,24.42
2018-07-31T04:58:58.191Z,24.42
2018-07-31T04:59:58.823Z,24.50
2018-07-31T05:00:59.405Z,24.38
2018-07-31T05:01:59.979Z,24.39
2018-07-31T05:03:00.566Z,24.40
2018-07-31T05:04:01.138Z,24.38
2018-07-31T05:05:01.723Z,24.48
2018-07-31T05:06:02.357Z,24.36
2018-07-31T05:07:02.934Z,24.42
2018-07-31T05:08:03.516Z,24.42
2018-07-31T05:09:04.099Z,24.40
2018-07-31T05:10:04.721Z,24.36
2018-07-31T05:11:05.367Z,24.39
2018-07-31T05:12:05.883Z,24.42
2018-07-31T05:13:06.467Z,24.36
2018-07-31T05:14:07.094Z,24.40
2018-07-31T05:15:07.720Z,24.38
2018-07-31T05:16:08.307Z,24.39
2018-07-31T05:17:08.941Z,24.39
2018-07-31T05:18:09.571Z,24.43
2018-07-31T05:19:10.117Z,24.38
2018-07-31T05:20:10.711Z,24.42
2018-07-31T05:21:11.296Z,24.42
2018-07-31T05:22:11.886Z,24.38
2018-07-31T05:23:12.525Z,24.38
2018-07-31T05:24:13.112Z,24.43
2018-07-31T05:25:13.709Z,24.39
2018-07-31T05:26:14.326Z,24.30
2018-07-31T05:27:14.909Z,24.38
2018-07-31T05:28:15.496Z,24.32
2018-07-31T05:29:16.078Z,24.35
2018-07-31T05:30:21.718Z,24.35
2018-07-31T05:31:22.404Z,24.42
2018-07-31T05:32:23.053Z,24.30
2018-07-31T05:33:23.577Z,24.36
2018-07-31T05:34:24.160Z,24.32
2018-07-31T05:35:24.752Z,24.43
2018-07-31T05:36:25.384Z,24.39
2018-07-31T05:37:25.970Z,24.40
2018-07-31T05:38:26.559Z,24.36
2018-07-31T05:39:27.148Z,24.39
2018-07-31T05:40:27.724Z,24.32
2018-07-31T05:41:28.312Z,24.40
2018-07-31T05:42:28.899Z,24.33
2018-07-31T05:43:29.487Z,24.33
2018-07-31T05:44:30.121Z,24.40
2018-07-31T05:45:30.701Z,24.35
2018-07-31T05:46:31.288Z,24.35
2018-07-31T05:47:31.873Z,24.35
2018-07-31T05:48:32.456Z,24.33
2018-07-31T05:49:33.046Z,24.26
2018-07-31T05:50:33.683Z,24.28
2018-07-31T05:51:34.268Z,24.26
2018-07-31T05:56:42.002Z,24.30
2018-07-31T05:57:42.589Z,24.33
2018-07-31T05:58:43.175Z,24.29
2018-07-31T05:59:43.762Z,24.29
2018-07-31T06:00:44.349Z,24.24
2018-07-31T06:01:44.932Z,24.17
2018-07-31T06:02:45.564Z,24.20
2018-07-31T06:03:46.153Z,24.23
2018-07-31T06:04:46.739Z,24.20
2018-07-31T06:05:47.323Z,24.13
2018-07-31T06:06:47.906Z,24.13
2018-07-31T06:07:48.487Z,24.10
2018-07-31T06:08:49.076Z,24.16
2018-07-31T06:09:49.708Z,24.16
2018-07-31T06:12:09.638Z,24.18
2018-07-31T06:13:10.219Z,24.20
2018-07-31T06:14:10.805Z,24.14
2018-07-31T06:15:11.473Z,24.16
2018-07-31T06:16:12.030Z,24.11
2018-07-31T06:17:12.618Z,24.08
2018-07-31T06:18:13.206Z,24.08
2018-07-31T06:19:13.795Z,24.11
2018-07-31T06:20:14.385Z,24.18
2018-07-31T06:21:14.964Z,24.13
2018-07-31T06:22:15.605Z,24.10
2018-07-31T06:23:16.190Z,24.11
2018-07-31T06:24:16.777Z,24.08
2018-07-31T06:25:17.365Z,24.10
2018-07-31T06:31:59.687Z,24.11
2018-07-31T06:33:00.353Z,24.13
2018-07-31T06:34:00.891Z,24.06
2018-07-31T06:35:01.472Z,24.11
2018-07-31T06:36:02.096Z,24.06
2018-07-31T06:37:02.769Z,24.06
2018-07-31T06:38:03.349Z,24.06
2018-07-31T06:39:03.933Z,24.13
2018-07-31T06:40:04.508Z,24.02
2018-07-31T06:41:05.080Z,24.03
2018-07-31T06:42:05.664Z,24.05
2018-07-31T06:43:06.243Z,24.02
2018-07-31T06:44:06.823Z,24.01
2018-07-31T06:45:07.454Z,24.03
2018-07-31T06:46:08.029Z,24.03
2018-07-31T06:47:08.610Z,24.03
2018-07-31T06:48:09.249Z,24.03
2018-07-31T06:49:09.877Z,24.02
2018-07-31T06:50:10.495Z,24.08
2018-07-31T06:51:11.087Z,24.03
2018-07-31T06:52:11.670Z,24.01
2018-07-31T06:53:12.305Z,24.05
2018-07-31T06:54:12.889Z,23.99
2018-07-31T06:55:13.477Z,24.05
2018-07-31T06:56:14.065Z,24.02
2018-07-31T06:57:14.643Z,23.96
2018-07-31T06:58:15.232Z,24.02
2018-07-31T06:59:15.820Z,24.01
2018-07-31T07:00:16.454Z,24.06
2018-07-31T07:01:17.044Z,23.98
2018-07-31T07:02:17.632Z,24.01
2018-07-31T07:03:18.220Z,23.92
2018-07-31T07:04:18.812Z,23.95
2018-07-31T07:05:19.395Z,24.01
2018-07-31T07:06:20.033Z,24.01
2018-07-31T07:07:20.618Z,24.01
2018-07-31T07:08:21.205Z,23.95
2018-07-31T07:09:21.898Z,24.01
2018-07-31T07:10:22.414Z,23.92
2018-07-31T07:11:23.003Z,23.96
2018-07-31T07:12:23.579Z,23.98
2018-07-31T07:13:24.166Z,23.96
2018-07-31T07:14:24.746Z,23.92
2018-07-31T07:15:25.398Z,23.96
2018-07-31T07:16:26.027Z,23.95
2018-07-31T07:17:26.660Z,23.96
2018-07-31T07:18:27.242Z,23.93
2018-07-31T07:19:27.832Z,23.92
2018-07-31T07:20:28.417Z,23.92
2018-07-31T07:21:29.005Z,23.98
2018-07-31T07:22:29.619Z,24.05
2018-07-31T07:23:30.227Z,24.03
2018-07-31T07:24:30.812Z,23.95
2018-07-31T07:25:31.398Z,23.93
2018-07-31T07:26:31.983Z,23.95
2018-07-31T07:27:32.572Z,23.98
2018-07-31T07:28:33.152Z,23.98
2018-07-31T07:29:33.742Z,24.01
2018-07-31T07:30:34.330Z,23.96
2018-07-31T07:31:34.918Z,23.95
2018-07-31T07:32:35.553Z,23.98
2018-07-31T07:33:36.271Z,23.99
2018-07-31T07:34:36.776Z,24.05
2018-07-31T07:35:37.355Z,23.95
2018-07-31T07:36:37.940Z,24.06
2018-07-31T07:37:38.519Z,23.98
2018-07-31T07:38:39.106Z,23.92
2018-07-31T07:39:39.692Z,23.98
2018-07-31T07:40:40.282Z,23.92
2018-07-31T07:41:40.917Z,23.96
2018-07-31T07:42:41.498Z,23.92
2018-07-31T07:43:42.088Z,23.93
2018-07-31T07:44:42.671Z,23.93
2018-07-31T07:45:43.258Z,23.93
2018-07-31T07:46:43.845Z,23.92
2018-07-31T07:47:44.432Z,23.95
2018-07-31T07:48:45.062Z,23.93
2018-07-31T07:49:45.651Z,23.98
2018-07-31T07:50:46.239Z,23.92
2018-07-31T07:51:46.826Z,23.95
2018-07-31T07:52:47.461Z,23.96
2018-07-31T07:53:48.082Z,23.95
2018-07-31T07:54:48.629Z,23.96
2018-07-31T07:55:49.216Z,24.01
2018-07-31T07:56:49.800Z,23.99
2018-07-31T07:57:50.386Z,23.96
2018-07-31T07:58:50.972Z,23.99
2018-07-31T07:59:51.607Z,23.96
2018-07-31T08:00:52.243Z,23.92
2018-07-31T08:01:52.824Z,23.99
2018-07-31T08:02:53.413Z,23.96
2018-07-31T08:03:54.039Z,23.93
2018-07-31T08:04:54.626Z,23.95
2018-07-31T08:05:55.213Z,23.98
2018-07-31T08:06:55.844Z,23.98
2018-07-31T08:07:56.432Z,23.96
2018-07-31T08:08:57.011Z,23.96
2018-07-31T08:09:57.601Z,23.93
2018-07-31T08:10:58.188Z,23.95
2018-07-31T08:11:58.769Z,23.96
2018-07-31T08:12:59.396Z,23.93
2018-07-31T08:13:59.983Z,23.95
2018-07-31T08:15:00.610Z,23.95
2018-07-31T08:16:01.164Z,23.88
2018-07-31T08:17:01.746Z,23.98
2018-07-31T08:18:02.390Z,23.91
2018-07-31T08:19:03.019Z,23.92
2018-07-31T08:20:03.610Z,24.02
2018-07-31T08:21:04.197Z,23.93
2018-07-31T08:22:04.786Z,24.01
2018-07-31T08:23:05.362Z,23.95
2018-07-31T08:24:05.953Z,23.98
2018-07-31T08:25:06.547Z,23.95
2018-07-31T08:26:07.128Z,23.93
2018-07-31T08:27:07.766Z,23.91
2018-07-31T08:28:08.342Z,23.95
2018-07-31T08:29:08.931Z,23.93
2018-07-31T08:30:09.520Z,23.88
2018-07-31T08:31:10.104Z,23.96
2018-07-31T08:32:10.727Z,23.91
2018-07-31T08:33:11.316Z,24.01
2018-07-31T08:34:11.904Z,24.01
2018-07-31T08:35:12.489Z,24.02
2018-07-31T08:36:13.075Z,24.01
2018-07-31T08:37:13.709Z,23.92
2018-07-31T08:38:14.345Z,24.01
2018-07-31T08:39:14.937Z,24.05
2018-07-31T08:40:15.513Z,24.01
2018-07-31T08:41:16.138Z,23.96
2018-07-31T08:42:16.732Z,23.88
2018-07-31T08:43:17.271Z,23.95
2018-07-31T08:44:17.954Z,23.92
2018-07-31T08:45:18.536Z,23.95
2018-07-31T08:46:19.125Z,23.95
2018-07-31T08:47:19.709Z,23.93
2018-07-31T08:48:20.295Z,23.95
2018-07-31T08:49:20.881Z,23.88
2018-07-31T08:50:21.514Z,23.95
2018-07-31T08:51:22.102Z,23.93
2018-07-31T08:52:22.732Z,23.91
2018-07-31T08:53:23.322Z,23.98
2018-07-31T08:54:23.905Z,23.96
2018-07-31T08:55:24.492Z,23.99
2018-07-31T08:56:25.081Z,24.01
2018-07-31T08:57:25.668Z,23.96
2018-07-31T08:58:26.304Z,23.98
2018-07-31T08:59:26.890Z,24.01
2018-07-31T09:00:27.475Z,23.96
2018-07-31T09:01:28.059Z,23.96
2018-07-31T09:02:28.696Z,24.01
2018-07-31T09:03:29.282Z,24.08
2018-07-31T09:04:29.863Z,24.03
2018-07-31T09:05:30.446Z,24.02
2018-07-31T09:06:31.079Z,24.02
2018-07-31T09:07:31.666Z,24.06
2018-07-31T09:08:32.322Z,24.08
2018-07-31T09:09:32.896Z,24.03
2018-07-31T09:10:33.563Z,24.05
2018-07-31T09:11:34.129Z,23.96
2018-07-31T09:12:34.717Z,23.93
2018-07-31T09:13:35.311Z,23.93
2018-07-31T09:14:35.899Z,23.84
2018-07-31T09:15:36.493Z,23.83
2018-07-31T09:16:37.133Z,23.78
2018-07-31T09:17:37.921Z,23.76
2018-07-31T09:18:38.354Z,23.76
2018-07-31T09:19:38.941Z,23.71
2018-07-31T09:20:39.536Z,23.76
2018-07-31T09:21:40.126Z,23.69
2018-07-31T09:22:40.716Z,23.63
2018-07-31T09:23:41.298Z,23.63
2018-07-31T09:24:41.981Z,23.71
2018-07-31T09:25:42.537Z,23.68
2018-07-31T09:26:43.124Z,23.66
2018-07-31T09:27:43.713Z,23.61
2018-07-31T09:28:44.304Z,23.63
2018-07-31T09:29:44.896Z,23.54
2018-07-31T09:30:45.537Z,23.68
2018-07-31T09:31:46.078Z,23.63
2018-07-31T09:32:46.673Z,23.62
2018-07-31T09:33:47.314Z,23.69
2018-07-31T09:34:48.010Z,23.65
2018-07-31T09:35:48.594Z,23.61
2018-07-31T09:36:49.188Z,23.62
2018-07-31T09:37:49.776Z,23.59
2018-07-31T09:38:50.365Z,23.69
2018-07-31T09:39:50.956Z,23.73
2018-07-31T09:40:51.548Z,23.71
2018-07-31T09:41:52.139Z,23.74
2018-07-31T09:42:52.731Z,23.84
2018-07-31T09:43:53.319Z,23.88
2018-07-31T09:44:53.903Z,23.86
2018-07-31T09:45:54.537Z,23.88
2018-07-31T09:46:55.128Z,23.91
2018-07-31T09:47:55.721Z,23.91
2018-07-31T09:48:56.313Z,23.84
2018-07-31T09:49:56.953Z,23.91
2018-07-31T09:50:57.539Z,23.86
2018-07-31T09:51:58.185Z,23.91
2018-07-31T09:52:58.766Z,23.98
2018-07-31T09:53:59.362Z,23.91
2018-07-31T09:54:59.952Z,23.95
2018-07-31T09:56:00.544Z,23.98
2018-07-31T09:57:01.132Z,23.96
2018-07-31T09:58:01.725Z,23.95
2018-07-31T09:59:02.357Z,23.99
2018-07-31T10:00:02.902Z,23.93
2018-07-31T10:01:03.499Z,23.88
2018-07-31T10:02:04.086Z,23.96
2018-07-31T10:03:04.728Z,23.88
2018-07-31T10:04:05.359Z,23.87
2018-07-31T10:05:05.963Z,23.91
2018-07-31T10:06:06.542Z,23.83
2018-07-31T10:07:07.183Z,23.87
2018-07-31T10:08:07.824Z,23.86
2018-07-31T10:09:08.409Z,23.86
2018-07-31T10:10:09.002Z,23.92
2018-07-31T10:11:09.593Z,23.80
2018-07-31T10:12:10.243Z,23.77
2018-07-31T10:13:10.777Z,23.73
2018-07-31T10:14:11.372Z,23.83
2018-07-31T10:15:11.960Z,23.76
2018-07-31T10:16:12.548Z,23.68
2018-07-31T10:17:13.137Z,23.80
2018-07-31T10:18:13.832Z,23.69
2018-07-31T10:19:14.356Z,23.81
2018-07-31T10:20:14.946Z,23.71
2018-07-31T10:21:15.693Z,23.69
2018-07-31T10:22:16.320Z,23.71
2018-07-31T10:23:16.906Z,23.69
2018-07-31T10:24:17.619Z,23.58
2018-07-31T10:25:18.089Z,23.62
2018-07-31T10:26:18.729Z,23.62
2018-07-31T10:27:19.323Z,23.69
2018-07-31T10:28:19.911Z,23.73
2018-07-31T10:29:20.555Z,23.71
2018-07-31T10:30:21.146Z,23.68
2018-07-31T10:31:21.738Z,23.78
2018-07-31T10:32:22.328Z,23.77
2018-07-31T10:33:22.919Z,23.69
2018-07-31T10:34:23.556Z,23.76
2018-07-31T10:35:24.148Z,23.87
2018-07-31T10:36:24.747Z,23.84
2018-07-31T10:37:25.339Z,23.99
2018-07-31T10:38:25.926Z,23.93
2018-07-31T10:39:26.514Z,24.02
2018-07-31T10:40:27.153Z,24.05
2018-07-31T10:41:27.748Z,24.11
2018-07-31T10:42:28.383Z,24.14
2018-07-31T10:43:28.977Z,24.23
2018-07-31T10:44:29.615Z,24.24
2018-07-31T10:45:30.206Z,24.26
2018-07-31T10:46:30.795Z,24.26
2018-07-31T10:47:31.383Z,24.24
2018-07-31T10:48:31.973Z,24.26
2018-07-31T10:49:32.568Z,24.39
2018-07-31T10:50:33.215Z,24.43
2018-07-31T10:51:33.799Z,24.36
2018-07-31T10:52:34.435Z,24.39
2018-07-31T10:53:35.024Z,24.47
2018-07-31T10:54:35.613Z,24.45
2018-07-31T10:55:36.204Z,24.48
2018-07-31T10:56:36.788Z,24.51
2018-07-31T10:57:37.383Z,24.51
2018-07-31T10:58:38.065Z,24.58
2018-07-31T10:59:38.631Z,24.73
2018-07-31T11:00:39.210Z,24.74
2018-07-31T11:01:39.894Z,24.73
2018-07-31T11:02:40.515Z,24.81
2018-07-31T11:03:41.076Z,24.84
2018-07-31T11:04:41.669Z,24.88
2018-07-31T11:05:42.262Z,24.91
2018-07-31T11:06:42.852Z,24.91
2018-07-31T11:07:43.445Z,24.96
2018-07-31T11:08:44.036Z,24.92
2018-07-31T11:09:44.627Z,25.04
2018-07-31T11:10:45.223Z,25.04
2018-07-31T11:11:45.807Z,25.10
2018-07-31T11:12:46.404Z,25.13
2018-07-31T11:13:47.087Z,25.14
2018-07-31T11:14:47.683Z,25.16
2018-07-31T11:15:48.317Z,25.11
2018-07-31T11:16:48.913Z,25.22
2018-07-31T11:17:49.511Z,25.31
2018-07-31T11:18:50.149Z,25.28
2018-07-31T11:19:50.744Z,25.35
2018-07-31T11:20:51.373Z,25.40
2018-07-31T11:21:51.928Z,25.31
2018-07-31T11:22:52.567Z,25.40
2018-07-31T11:23:53.161Z,25.41
2018-07-31T11:24:53.754Z,25.36
2018-07-31T11:25:54.346Z,25.35
2018-07-31T11:26:54.990Z,25.32
2018-07-31T11:27:55.592Z,25.36
2018-07-31T11:28:56.225Z,25.23
2018-07-31T11:29:56.820Z,25.26
2018-07-31T11:30:57.513Z,25.22
2018-07-31T11:31:58.204Z,25.17
2018-07-31T11:34:00.384Z,25.25
2018-07-31T11:36:02.610Z,25.28
2018-07-31T11:37:03.202Z,25.17
2018-07-31T11:38:03.798Z,25.14
2018-07-31T11:39:04.395Z,25.21
2018-07-31T11:40:04.990Z,25.16
2018-07-31T11:41:05.573Z,25.18
2018-07-31T11:42:06.165Z,25.21
2018-07-31T11:43:06.758Z,25.14
2018-07-31T11:44:07.357Z,25.16
2018-07-31T11:45:07.947Z,25.10
2018-07-31T11:46:08.540Z,25.18
2018-07-31T11:47:09.134Z,25.11
2018-07-31T11:48:09.729Z,25.16
2018-07-31T11:49:10.324Z,25.21
2018-07-31T11:50:10.968Z,25.25
2018-07-31T11:51:11.564Z,25.18
2018-07-31T11:52:12.153Z,25.18
2018-07-31T11:53:12.749Z,25.22
2018-07-31T11:54:13.348Z,25.25
2018-07-31T11:55:13.942Z,25.25
2018-07-31T11:56:14.588Z,25.22
2018-07-31T11:57:15.183Z,25.18
2018-07-31T11:58:15.781Z,25.28
2018-07-31T11:59:16.377Z,25.29
2018-07-31T12:00:17.023Z,25.31
2018-07-31T12:01:17.619Z,25.26
2018-07-31T12:02:18.220Z,25.22
2018-07-31T12:03:18.865Z,25.22
2018-07-31T12:04:19.501Z,25.25
2018-07-31T12:05:20.052Z,25.16
2018-07-31T12:06:20.650Z,25.21
2018-07-31T12:07:21.244Z,25.16
2018-07-31T12:08:21.842Z,25.25
2018-07-31T12:09:22.440Z,25.31
2018-07-31T12:10:23.038Z,25.26
2018-07-31T12:11:23.684Z,25.25
2018-07-31T12:12:24.277Z,25.17
2018-07-31T12:13:24.926Z,25.32
2018-07-31T12:14:25.620Z,25.35
2018-07-31T12:15:26.216Z,25.32
2018-07-31T12:16:26.808Z,25.35
2018-07-31T12:17:27.404Z,25.69
2018-07-31T12:18:28.007Z,26.21
2018-07-31T12:19:28.692Z,26.63
2018-07-31T12:20:29.281Z,26.93
2018-07-31T12:21:29.880Z,27.35
2018-07-31T12:22:30.477Z,27.64
2018-07-31T12:23:31.074Z,27.86
2018-07-31T12:24:31.666Z,28.15
2018-07-31T12:25:32.266Z,28.37
2018-07-31T12:26:32.861Z,28.44
2018-07-31T12:27:33.465Z,28.52
2018-07-31T12:28:34.050Z,28.72
2018-07-31T12:29:34.702Z,28.97
2018-07-31T12:30:35.302Z,29.19
2018-07-31T12:31:35.896Z,29.31
2018-07-31T12:32:41.589Z,29.32
2018-07-31T12:33:42.153Z,29.53
2018-07-31T12:34:42.800Z,29.59
2018-07-31T12:35:43.397Z,29.71
2018-07-31T12:36:43.998Z,29.81
2018-07-31T12:37:44.597Z,29.87
2018-07-31T12:38:45.247Z,30.02
2018-07-31T12:39:45.847Z,30.16
2018-07-31T12:41:48.027Z,30.28
2018-07-31T12:42:48.626Z,30.37
2018-07-31T12:43:49.243Z,30.47
2018-07-31T12:44:49.826Z,30.61
2018-07-31T12:45:50.429Z,30.66
2018-07-31T12:46:51.072Z,30.80
2018-07-31T12:47:51.677Z,30.92
2018-07-31T12:48:52.280Z,30.90
2018-07-31T12:49:52.881Z,30.92
2018-07-31T12:50:53.480Z,31.05
2018-07-31T12:51:54.131Z,31.14
2018-07-31T12:52:54.733Z,31.12
2018-07-31T12:53:55.383Z,31.20
2018-07-31T12:56:00.651Z,31.34
2018-07-31T12:57:01.247Z,31.46
2018-07-31T12:58:01.843Z,31.52
2018-07-31T12:59:03.654Z,31.47
2018-07-31T13:00:04.281Z,31.61
2018-07-31T13:01:04.860Z,31.69
2018-07-31T13:02:05.463Z,31.77
2018-07-31T13:03:06.067Z,31.85
2018-07-31T13:04:06.669Z,31.92
2018-07-31T13:05:07.270Z,32.00
2018-07-31T13:06:07.872Z,31.94
2018-07-31T13:07:08.473Z,32.03
2018-07-31T13:08:09.124Z,32.14
2018-07-31T13:09:09.776Z,32.11
2018-07-31T13:10:10.378Z,32.31
2018-07-31T13:11:10.983Z,32.34
2018-07-31T13:12:11.630Z,32.40
2018-07-31T13:13:12.250Z,32.33
2018-07-31T13:14:12.835Z,32.45
2018-07-31T13:15:13.428Z,32.55
2018-07-31T13:16:14.039Z,32.59
2018-07-31T13:17:14.636Z,32.67
2018-07-31T13:18:15.232Z,32.67
2018-07-31T13:19:15.839Z,32.80
2018-07-31T13:20:16.441Z,32.78
2018-07-31T13:21:17.044Z,32.78
2018-07-31T13:22:17.639Z,32.75
2018-07-31T13:23:18.239Z,32.80
2018-07-31T13:24:18.843Z,32.75
2018-07-31T13:25:19.499Z,32.78
2018-07-31T13:26:20.101Z,32.92
2018-07-31T13:27:20.700Z,32.92
2018-07-31T13:28:21.349Z,32.90
2018-07-31T13:29:21.953Z,33.02
2018-07-31T13:30:22.554Z,33.01
2018-07-31T13:31:23.205Z,33.05
2018-07-31T13:32:23.806Z,33.11
2018-07-31T13:33:24.412Z,33.09
2018-07-31T13:34:25.009Z,33.08
2018-07-31T13:35:25.616Z,33.08
2018-07-31T13:36:26.220Z,33.09
2018-07-31T13:37:26.822Z,33.01
2018-07-31T13:38:27.421Z,33.01